sensor_id;sensor_type;location;lat;lon;timestamp;temperature;humidity
20200;DHT22;36284;37.236;-121.934;2023-10-19T00:01:18;30.90;96.40
20200;DHT22;36284;37.236;-121.934;2023-10-19T00:03:45;30.80;98.00
20200;DHT22;36284;37.236;-121.934;2023-10-19T00:06:12;30.60;96.60
20200;DHT22;36284;37.236;-121.934;2023-10-19T00:08:39;30.70;97.10
20200;DHT22;36284;37.236;-121.934;2023-10-19T00:11:10;30.50;98.50
20200;DHT22;36284;37.236;-121.934;2023-10-19T00:13:48;30.30;98.10
20200;DHT22;36284;37.236;-121.934;2023-10-19T00:16:20;30.10;99.10
20200;DHT22;36284;37.236;-121.934;2023-10-19T00:18:55;29.90;99.50
20200;DHT22;36284;37.236;-121.934;2023-10-19T00:21:26;29.60;99.90
20200;DHT22;36284;37.236;-121.934;2023-10-19T00:23:55;29.20;99.90
20200;DHT22;36284;37.236;-121.934;2023-10-19T00:26:27;28.80;99.90
20200;DHT22;36284;37.236;-121.934;2023-10-19T00:28:56;28.50;99.90
20200;DHT22;36284;37.236;-121.934;2023-10-19T00:31:25;28.50;99.90
20200;DHT22;36284;37.236;-121.934;2023-10-19T00:33:55;28.10;99.90
20200;DHT22;36284;37.236;-121.934;2023-10-19T00:36:23;27.90;99.90
20200;DHT22;36284;37.236;-121.934;2023-10-19T00:38:51;27.70;99.90
20200;DHT22;36284;37.236;-121.934;2023-10-19T00:41:22;27.30;99.90
20200;DHT22;36284;37.236;-121.934;2023-10-19T00:43:56;26.90;99.90
20200;DHT22;36284;37.236;-121.934;2023-10-19T00:46:30;27.00;99.90
20200;DHT22;36284;37.236;-121.934;2023-10-19T00:49:02;26.90;99.90
20200;DHT22;36284;37.236;-121.934;2023-10-19T00:51:37;26.70;99.90
20200;DHT22;36284;37.236;-121.934;2023-10-19T00:54:23;26.50;99.90
20200;DHT22;36284;37.236;-121.934;2023-10-19T00:57:01;26.30;99.90
20200;DHT22;36284;37.236;-121.934;2023-10-19T00:59:39;26.10;99.90
20200;DHT22;36284;37.236;-121.934;2023-10-19T01:02:14;26.10;99.90
20200;DHT22;36284;37.236;-121.934;2023-10-19T01:04:51;25.80;99.90
20200;DHT22;36284;37.236;-121.934;2023-10-19T01:07:47;25.80;99.90
20200;DHT22;36284;37.236;-121.934;2023-10-19T01:10:22;25.60;99.90
20200;DHT22;36284;37.236;-121.934;2023-10-19T01:15:18;25.40;99.90
20200;DHT22;36284;37.236;-121.934;2023-10-19T01:17:58;25.40;99.90
20200;DHT22;36284;37.236;-121.934;2023-10-19T01:20:29;25.30;99.90
20200;DHT22;36284;37.236;-121.934;2023-10-19T01:28:11;25.00;99.90
20200;DHT22;36284;37.236;-121.934;2023-10-19T01:30:43;24.90;99.90
20200;DHT22;36284;37.236;-121.934;2023-10-19T01:33:18;24.80;99.90
20200;DHT22;36284;37.236;-121.934;2023-10-19T01:35:45;24.60;99.90
20200;DHT22;36284;37.236;-121.934;2023-10-19T01:38:31;24.60;99.90
20200;DHT22;36284;37.236;-121.934;2023-10-19T01:40:59;24.50;99.90
20200;DHT22;36284;37.236;-121.934;2023-10-19T01:43:29;24.30;99.90
20200;DHT22;36284;37.236;-121.934;2023-10-19T01:45:58;24.20;99.90
20200;DHT22;36284;37.236;-121.934;2023-10-19T01:48:31;24.10;99.90
20200;DHT22;36284;37.236;-121.934;2023-10-19T01:51:04;24.00;99.90
20200;DHT22;36284;37.236;-121.934;2023-10-19T01:53:32;23.90;99.90
20200;DHT22;36284;37.236;-121.934;2023-10-19T01:56:00;23.80;99.90
20200;DHT22;36284;37.236;-121.934;2023-10-19T01:58:27;23.60;99.90
20200;DHT22;36284;37.236;-121.934;2023-10-19T02:00:54;23.60;99.90
20200;DHT22;36284;37.236;-121.934;2023-10-19T02:03:22;23.50;99.90
20200;DHT22;36284;37.236;-121.934;2023-10-19T02:05:50;23.50;99.90
20200;DHT22;36284;37.236;-121.934;2023-10-19T02:08:23;23.50;99.90
20200;DHT22;36284;37.236;-121.934;2023-10-19T02:10:53;23.40;99.90
20200;DHT22;36284;37.236;-121.934;2023-10-19T02:13:21;23.20;99.90
20200;DHT22;36284;37.236;-121.934;2023-10-19T02:15:48;22.90;99.90
20200;DHT22;36284;37.236;-121.934;2023-10-19T02:18:15;22.80;99.90
20200;DHT22;36284;37.236;-121.934;2023-10-19T02:20:43;22.80;99.90
20200;DHT22;36284;37.236;-121.934;2023-10-19T02:23:14;22.80;99.90
20200;DHT22;36284;37.236;-121.934;2023-10-19T02:25:41;22.80;99.90
20200;DHT22;36284;37.236;-121.934;2023-10-19T02:28:08;22.60;99.90
20200;DHT22;36284;37.236;-121.934;2023-10-19T02:30:36;22.50;99.90
20200;DHT22;36284;37.236;-121.934;2023-10-19T02:33:07;22.40;99.90
20200;DHT22;36284;37.236;-121.934;2023-10-19T02:35:34;22.40;99.90
20200;DHT22;36284;37.236;-121.934;2023-10-19T02:38:02;22.40;99.90
20200;DHT22;36284;37.236;-121.934;2023-10-19T02:40:29;22.30;99.90
20200;DHT22;36284;37.236;-121.934;2023-10-19T02:43:00;22.20;99.90
20200;DHT22;36284;37.236;-121.934;2023-10-19T02:45:29;22.20;99.90
20200;DHT22;36284;37.236;-121.934;2023-10-19T02:47:58;22.20;99.90
20200;DHT22;36284;37.236;-121.934;2023-10-19T02:50:25;22.20;99.90
20200;DHT22;36284;37.236;-121.934;2023-10-19T02:52:53;22.20;99.90
20200;DHT22;36284;37.236;-121.934;2023-10-19T02:55:20;22.10;99.90
20200;DHT22;36284;37.236;-121.934;2023-10-19T02:57:50;22.00;99.90
20200;DHT22;36284;37.236;-121.934;2023-10-19T03:00:17;21.90;99.90
20200;DHT22;36284;37.236;-121.934;2023-10-19T03:02:50;21.90;99.90
20200;DHT22;36284;37.236;-121.934;2023-10-19T03:05:18;21.90;99.90
20200;DHT22;36284;37.236;-121.934;2023-10-19T03:07:46;21.80;99.90
20200;DHT22;36284;37.236;-121.934;2023-10-19T03:10:13;21.80;99.90
20200;DHT22;36284;37.236;-121.934;2023-10-19T03:13:00;21.70;99.90
20200;DHT22;36284;37.236;-121.934;2023-10-19T03:15:31;21.70;99.90
20200;DHT22;36284;37.236;-121.934;2023-10-19T03:17:59;21.50;99.90
20200;DHT22;36284;37.236;-121.934;2023-10-19T03:20:30;21.50;99.90
20200;DHT22;36284;37.236;-121.934;2023-10-19T03:23:00;21.50;99.90
20200;DHT22;36284;37.236;-121.934;2023-10-19T03:25:28;21.40;99.90
20200;DHT22;36284;37.236;-121.934;2023-10-19T03:28:13;21.30;99.90
20200;DHT22;36284;37.236;-121.934;2023-10-19T03:30:43;21.30;99.90
20200;DHT22;36284;37.236;-121.934;2023-10-19T03:33:10;21.30;99.90
20200;DHT22;36284;37.236;-121.934;2023-10-19T03:35:38;21.30;99.90
20200;DHT22;36284;37.236;-121.934;2023-10-19T03:38:09;21.30;99.90
20200;DHT22;36284;37.236;-121.934;2023-10-19T03:40:49;21.20;99.90
20200;DHT22;36284;37.236;-121.934;2023-10-19T03:43:26;21.20;99.90
20200;DHT22;36284;37.236;-121.934;2023-10-19T03:45:54;21.20;99.90
20200;DHT22;36284;37.236;-121.934;2023-10-19T03:48:21;21.20;99.90
20200;DHT22;36284;37.236;-121.934;2023-10-19T03:51:00;21.20;99.90
20200;DHT22;36284;37.236;-121.934;2023-10-19T03:53:29;21.20;99.90
20200;DHT22;36284;37.236;-121.934;2023-10-19T03:55:57;21.10;99.90
20200;DHT22;36284;37.236;-121.934;2023-10-19T03:58:24;21.00;99.90
20200;DHT22;36284;37.236;-121.934;2023-10-19T04:00:55;21.00;99.90
20200;DHT22;36284;37.236;-121.934;2023-10-19T04:03:28;21.00;99.90
20200;DHT22;36284;37.236;-121.934;2023-10-19T04:05:57;20.90;99.90
20200;DHT22;36284;37.236;-121.934;2023-10-19T04:08:27;20.90;99.90
20200;DHT22;36284;37.236;-121.934;2023-10-19T04:10:58;20.90;99.90
20200;DHT22;36284;37.236;-121.934;2023-10-19T04:13:57;20.90;99.90
20200;DHT22;36284;37.236;-121.934;2023-10-19T04:16:25;20.80;99.90
20200;DHT22;36284;37.236;-121.934;2023-10-19T04:18:52;20.70;99.90
20200;DHT22;36284;37.236;-121.934;2023-10-19T04:21:21;20.70;99.90
20200;DHT22;36284;37.236;-121.934;2023-10-19T04:23:48;20.60;99.90
20200;DHT22;36284;37.236;-121.934;2023-10-19T04:26:15;20.50;99.90
20200;DHT22;36284;37.236;-121.934;2023-10-19T04:28:45;20.50;99.90
20200;DHT22;36284;37.236;-121.934;2023-10-19T04:31:18;20.40;99.90
20200;DHT22;36284;37.236;-121.934;2023-10-19T04:33:46;20.20;99.90
20200;DHT22;36284;37.236;-121.934;2023-10-19T04:36:14;20.20;99.90
20200;DHT22;36284;37.236;-121.934;2023-10-19T04:38:42;20.20;99.90
20200;DHT22;36284;37.236;-121.934;2023-10-19T04:41:11;20.20;99.90
20200;DHT22;36284;37.236;-121.934;2023-10-19T04:43:39;20.10;99.90
20200;DHT22;36284;37.236;-121.934;2023-10-19T04:46:10;20.00;99.90
20200;DHT22;36284;37.236;-121.934;2023-10-19T04:48:39;20.00;99.90
20200;DHT22;36284;37.236;-121.934;2023-10-19T04:51:07;20.00;99.90
20200;DHT22;36284;37.236;-121.934;2023-10-19T04:53:36;20.00;99.90
20200;DHT22;36284;37.236;-121.934;2023-10-19T04:56:04;19.90;99.90
20200;DHT22;36284;37.236;-121.934;2023-10-19T04:58:31;19.90;99.90
20200;DHT22;36284;37.236;-121.934;2023-10-19T05:00:58;19.80;99.90
20200;DHT22;36284;37.236;-121.934;2023-10-19T05:03:26;19.70;99.90
20200;DHT22;36284;37.236;-121.934;2023-10-19T05:05:55;19.60;99.90
20200;DHT22;36284;37.236;-121.934;2023-10-19T05:08:25;19.50;99.90
20200;DHT22;36284;37.236;-121.934;2023-10-19T05:10:55;19.40;99.90
20200;DHT22;36284;37.236;-121.934;2023-10-19T05:13:24;19.40;99.90
20200;DHT22;36284;37.236;-121.934;2023-10-19T05:15:55;19.40;99.90
20200;DHT22;36284;37.236;-121.934;2023-10-19T05:18:22;19.40;99.90
20200;DHT22;36284;37.236;-121.934;2023-10-19T05:20:50;19.30;99.90
20200;DHT22;36284;37.236;-121.934;2023-10-19T05:23:24;19.30;99.90
20200;DHT22;36284;37.236;-121.934;2023-10-19T05:26:04;19.30;99.90
20200;DHT22;36284;37.236;-121.934;2023-10-19T05:28:31;19.30;99.90
20200;DHT22;36284;37.236;-121.934;2023-10-19T05:30:58;19.30;99.90
20200;DHT22;36284;37.236;-121.934;2023-10-19T05:33:27;19.30;99.90
20200;DHT22;36284;37.236;-121.934;2023-10-19T05:35:55;19.20;99.90
20200;DHT22;36284;37.236;-121.934;2023-10-19T05:38:23;19.20;99.90
20200;DHT22;36284;37.236;-121.934;2023-10-19T05:40:50;19.10;99.90
20200;DHT22;36284;37.236;-121.934;2023-10-19T05:43:18;19.10;99.90
20200;DHT22;36284;37.236;-121.934;2023-10-19T05:45:45;19.00;99.90
20200;DHT22;36284;37.236;-121.934;2023-10-19T05:48:16;19.00;99.90
20200;DHT22;36284;37.236;-121.934;2023-10-19T05:50:43;19.00;99.90
20200;DHT22;36284;37.236;-121.934;2023-10-19T05:53:10;19.00;99.90
20200;DHT22;36284;37.236;-121.934;2023-10-19T05:55:37;18.90;99.90
20200;DHT22;36284;37.236;-121.934;2023-10-19T05:58:06;18.90;99.90
20200;DHT22;36284;37.236;-121.934;2023-10-19T06:00:33;18.80;99.90
20200;DHT22;36284;37.236;-121.934;2023-10-19T06:03:03;18.70;99.90
20200;DHT22;36284;37.236;-121.934;2023-10-19T06:05:31;18.70;99.90
20200;DHT22;36284;37.236;-121.934;2023-10-19T06:07:58;18.70;99.90
20200;DHT22;36284;37.236;-121.934;2023-10-19T06:10:28;18.70;99.90
20200;DHT22;36284;37.236;-121.934;2023-10-19T06:12:55;18.70;99.90
20200;DHT22;36284;37.236;-121.934;2023-10-19T06:15:23;18.60;99.90
20200;DHT22;36284;37.236;-121.934;2023-10-19T06:17:51;18.60;99.90
20200;DHT22;36284;37.236;-121.934;2023-10-19T06:20:19;18.50;99.90
20200;DHT22;36284;37.236;-121.934;2023-10-19T06:22:53;18.50;99.90
20200;DHT22;36284;37.236;-121.934;2023-10-19T06:25:23;18.50;99.90
20200;DHT22;36284;37.236;-121.934;2023-10-19T06:27:51;18.40;99.90
20200;DHT22;36284;37.236;-121.934;2023-10-19T06:30:19;18.30;99.90
20200;DHT22;36284;37.236;-121.934;2023-10-19T06:32:51;18.30;99.90
20200;DHT22;36284;37.236;-121.934;2023-10-19T06:35:19;18.30;99.90
20200;DHT22;36284;37.236;-121.934;2023-10-19T06:37:46;18.10;99.90
20200;DHT22;36284;37.236;-121.934;2023-10-19T06:40:15;18.10;99.90
20200;DHT22;36284;37.236;-121.934;2023-10-19T06:42:44;18.10;99.90
20200;DHT22;36284;37.236;-121.934;2023-10-19T06:45:17;18.10;99.90
20200;DHT22;36284;37.236;-121.934;2023-10-19T06:47:47;18.00;99.90
20200;DHT22;36284;37.236;-121.934;2023-10-19T06:50:17;18.00;99.90
20200;DHT22;36284;37.236;-121.934;2023-10-19T06:52:45;18.10;99.90
20200;DHT22;36284;37.236;-121.934;2023-10-19T06:55:16;18.10;99.90
20200;DHT22;36284;37.236;-121.934;2023-10-19T06:57:49;18.10;99.90
20200;DHT22;36284;37.236;-121.934;2023-10-19T07:00:17;18.20;99.90
20200;DHT22;36284;37.236;-121.934;2023-10-19T07:02:50;18.20;99.90
20200;DHT22;36284;37.236;-121.934;2023-10-19T07:05:18;18.10;99.90
20200;DHT22;36284;37.236;-121.934;2023-10-19T07:07:47;18.00;99.90
20200;DHT22;36284;37.236;-121.934;2023-10-19T07:10:15;17.90;99.90
20200;DHT22;36284;37.236;-121.934;2023-10-19T07:12:48;17.90;99.90
20200;DHT22;36284;37.236;-121.934;2023-10-19T07:15:15;17.90;99.90
20200;DHT22;36284;37.236;-121.934;2023-10-19T07:17:49;17.80;99.90
20200;DHT22;36284;37.236;-121.934;2023-10-19T07:20:19;17.80;99.90
20200;DHT22;36284;37.236;-121.934;2023-10-19T07:22:52;17.80;99.90
20200;DHT22;36284;37.236;-121.934;2023-10-19T07:25:21;17.90;99.90
20200;DHT22;36284;37.236;-121.934;2023-10-19T07:27:49;17.90;99.90
20200;DHT22;36284;37.236;-121.934;2023-10-19T07:30:22;17.90;99.90
20200;DHT22;36284;37.236;-121.934;2023-10-19T07:32:53;17.90;99.90
20200;DHT22;36284;37.236;-121.934;2023-10-19T07:35:27;17.90;99.90
20200;DHT22;36284;37.236;-121.934;2023-10-19T07:37:55;17.80;99.90
20200;DHT22;36284;37.236;-121.934;2023-10-19T07:40:23;17.80;99.90
20200;DHT22;36284;37.236;-121.934;2023-10-19T07:42:52;17.80;99.90
20200;DHT22;36284;37.236;-121.934;2023-10-19T07:45:20;17.80;99.90
20200;DHT22;36284;37.236;-121.934;2023-10-19T07:47:48;17.90;99.90
20200;DHT22;36284;37.236;-121.934;2023-10-19T07:50:15;17.80;99.90
20200;DHT22;36284;37.236;-121.934;2023-10-19T07:52:53;17.70;99.90
20200;DHT22;36284;37.236;-121.934;2023-10-19T07:55:22;17.60;99.90
20200;DHT22;36284;37.236;-121.934;2023-10-19T07:57:52;17.50;99.90
20200;DHT22;36284;37.236;-121.934;2023-10-19T08:02:49;17.30;99.90
20200;DHT22;36284;37.236;-121.934;2023-10-19T08:05:18;17.20;99.90
20200;DHT22;36284;37.236;-121.934;2023-10-19T08:07:45;17.10;99.90
20200;DHT22;36284;37.236;-121.934;2023-10-19T08:10:17;17.00;99.90
20200;DHT22;36284;37.236;-121.934;2023-10-19T08:12:45;17.00;99.90
20200;DHT22;36284;37.236;-121.934;2023-10-19T08:15:16;16.90;99.90
20200;DHT22;36284;37.236;-121.934;2023-10-19T08:17:46;16.90;99.90
20200;DHT22;36284;37.236;-121.934;2023-10-19T08:20:22;16.90;99.90
20200;DHT22;36284;37.236;-121.934;2023-10-19T08:23:07;16.80;99.90
20200;DHT22;36284;37.236;-121.934;2023-10-19T08:25:34;16.80;99.90
20200;DHT22;36284;37.236;-121.934;2023-10-19T08:28:01;16.80;99.90
20200;DHT22;36284;37.236;-121.934;2023-10-19T08:30:28;16.80;99.90
20200;DHT22;36284;37.236;-121.934;2023-10-19T08:32:55;16.80;99.90
20200;DHT22;36284;37.236;-121.934;2023-10-19T08:35:24;16.70;99.90
20200;DHT22;36284;37.236;-121.934;2023-10-19T08:37:52;16.70;99.90
20200;DHT22;36284;37.236;-121.934;2023-10-19T08:40:20;16.80;99.90
20200;DHT22;36284;37.236;-121.934;2023-10-19T08:42:48;16.80;99.90
20200;DHT22;36284;37.236;-121.934;2023-10-19T08:45:15;16.80;99.90
20200;DHT22;36284;37.236;-121.934;2023-10-19T08:47:57;16.80;99.90
20200;DHT22;36284;37.236;-121.934;2023-10-19T08:50:29;16.80;99.90
20200;DHT22;36284;37.236;-121.934;2023-10-19T08:52:57;16.80;99.90
20200;DHT22;36284;37.236;-121.934;2023-10-19T08:55:25;16.70;99.90
20200;DHT22;36284;37.236;-121.934;2023-10-19T08:57:52;16.60;99.90
20200;DHT22;36284;37.236;-121.934;2023-10-19T09:00:20;16.60;99.90
20200;DHT22;36284;37.236;-121.934;2023-10-19T09:02:55;16.60;99.90
20200;DHT22;36284;37.236;-121.934;2023-10-19T09:05:26;16.50;99.90
20200;DHT22;36284;37.236;-121.934;2023-10-19T09:07:54;16.40;99.90
20200;DHT22;36284;37.236;-121.934;2023-10-19T09:10:26;16.30;99.90
20200;DHT22;36284;37.236;-121.934;2023-10-19T09:15:32;16.30;99.90
20200;DHT22;36284;37.236;-121.934;2023-10-19T09:18:16;16.30;99.90
20200;DHT22;36284;37.236;-121.934;2023-10-19T09:20:45;16.20;99.90
20200;DHT22;36284;37.236;-121.934;2023-10-19T09:23:23;16.20;99.90
20200;DHT22;36284;37.236;-121.934;2023-10-19T09:25:52;16.20;99.90
20200;DHT22;36284;37.236;-121.934;2023-10-19T09:28:22;16.10;99.90
20200;DHT22;36284;37.236;-121.934;2023-10-19T09:30:51;16.10;99.90
20200;DHT22;36284;37.236;-121.934;2023-10-19T09:33:18;16.00;99.90
20200;DHT22;36284;37.236;-121.934;2023-10-19T09:35:48;16.00;99.90
20200;DHT22;36284;37.236;-121.934;2023-10-19T09:38:17;16.00;99.90
20200;DHT22;36284;37.236;-121.934;2023-10-19T09:40:52;16.00;99.90
20200;DHT22;36284;37.236;-121.934;2023-10-19T09:43:41;16.00;99.90
20200;DHT22;36284;37.236;-121.934;2023-10-19T09:46:11;16.00;99.90
20200;DHT22;36284;37.236;-121.934;2023-10-19T09:48:43;16.00;99.90
20200;DHT22;36284;37.236;-121.934;2023-10-19T09:51:12;16.00;99.90
20200;DHT22;36284;37.236;-121.934;2023-10-19T09:53:40;16.00;99.90
20200;DHT22;36284;37.236;-121.934;2023-10-19T09:56:17;16.00;99.90
20200;DHT22;36284;37.236;-121.934;2023-10-19T09:58:54;16.00;99.90
20200;DHT22;36284;37.236;-121.934;2023-10-19T10:01:22;16.00;99.90
20200;DHT22;36284;37.236;-121.934;2023-10-19T10:03:53;16.00;99.90
20200;DHT22;36284;37.236;-121.934;2023-10-19T10:06:57;16.00;99.90
20200;DHT22;36284;37.236;-121.934;2023-10-19T10:09:21;16.00;99.90
20200;DHT22;36284;37.236;-121.934;2023-10-19T10:11:49;16.10;99.90
20200;DHT22;36284;37.236;-121.934;2023-10-19T10:14:27;16.10;99.90
20200;DHT22;36284;37.236;-121.934;2023-10-19T10:17:04;16.30;99.90
20200;DHT22;36284;37.236;-121.934;2023-10-19T10:19:36;16.30;99.90
20200;DHT22;36284;37.236;-121.934;2023-10-19T10:22:12;16.30;99.90
20200;DHT22;36284;37.236;-121.934;2023-10-19T10:24:45;16.20;99.90
20200;DHT22;36284;37.236;-121.934;2023-10-19T10:27:16;16.20;99.90
20200;DHT22;36284;37.236;-121.934;2023-10-19T10:29:59;16.10;99.90
20200;DHT22;36284;37.236;-121.934;2023-10-19T10:32:47;16.00;99.90
20200;DHT22;36284;37.236;-121.934;2023-10-19T10:38:07;15.80;99.90
20200;DHT22;36284;37.236;-121.934;2023-10-19T10:40:47;15.70;99.90
20200;DHT22;36284;37.236;-121.934;2023-10-19T10:43:15;15.70;99.90
20200;DHT22;36284;37.236;-121.934;2023-10-19T10:45:43;15.60;99.90
20200;DHT22;36284;37.236;-121.934;2023-10-19T10:48:17;15.60;99.90
20200;DHT22;36284;37.236;-121.934;2023-10-19T10:50:45;15.60;99.90
20200;DHT22;36284;37.236;-121.934;2023-10-19T10:53:13;15.60;99.90
20200;DHT22;36284;37.236;-121.934;2023-10-19T10:55:44;15.60;99.90
20200;DHT22;36284;37.236;-121.934;2023-10-19T10:58:18;15.50;99.90
20200;DHT22;36284;37.236;-121.934;2023-10-19T11:00:46;15.50;99.90
20200;DHT22;36284;37.236;-121.934;2023-10-19T11:03:17;15.50;99.90
20200;DHT22;36284;37.236;-121.934;2023-10-19T11:05:44;15.40;99.90
20200;DHT22;36284;37.236;-121.934;2023-10-19T11:08:13;15.40;99.90
20200;DHT22;36284;37.236;-121.934;2023-10-19T11:10:44;15.40;99.90
20200;DHT22;36284;37.236;-121.934;2023-10-19T11:13:17;15.40;99.90
20200;DHT22;36284;37.236;-121.934;2023-10-19T11:15:50;15.40;99.90
20200;DHT22;36284;37.236;-121.934;2023-10-19T11:21:05;15.30;99.90
20200;DHT22;36284;37.236;-121.934;2023-10-19T11:26:03;15.40;99.90
20200;DHT22;36284;37.236;-121.934;2023-10-19T11:28:32;15.40;99.90
20200;DHT22;36284;37.236;-121.934;2023-10-19T11:31:20;15.20;99.90
20200;DHT22;36284;37.236;-121.934;2023-10-19T11:33:53;15.20;99.90
20200;DHT22;36284;37.236;-121.934;2023-10-19T11:36:22;15.20;99.90
20200;DHT22;36284;37.236;-121.934;2023-10-19T11:38:52;15.20;99.90
20200;DHT22;36284;37.236;-121.934;2023-10-19T11:41:19;15.20;99.90
20200;DHT22;36284;37.236;-121.934;2023-10-19T11:43:47;15.10;99.90
20200;DHT22;36284;37.236;-121.934;2023-10-19T11:46:16;15.10;99.90
20200;DHT22;36284;37.236;-121.934;2023-10-19T11:48:51;15.00;99.90
20200;DHT22;36284;37.236;-121.934;2023-10-19T11:51:18;15.00;99.90
20200;DHT22;36284;37.236;-121.934;2023-10-19T11:53:45;15.00;99.90
20200;DHT22;36284;37.236;-121.934;2023-10-19T11:56:13;15.00;99.90
20200;DHT22;36284;37.236;-121.934;2023-10-19T11:58:42;15.10;99.90
20200;DHT22;36284;37.236;-121.934;2023-10-19T12:01:11;15.10;99.90
20200;DHT22;36284;37.236;-121.934;2023-10-19T12:03:43;15.10;99.90
20200;DHT22;36284;37.236;-121.934;2023-10-19T12:06:12;15.20;99.90
20200;DHT22;36284;37.236;-121.934;2023-10-19T12:08:45;15.20;99.90
20200;DHT22;36284;37.236;-121.934;2023-10-19T12:11:13;15.30;99.90
20200;DHT22;36284;37.236;-121.934;2023-10-19T12:13:46;15.20;99.90
20200;DHT22;36284;37.236;-121.934;2023-10-19T12:16:14;15.20;99.90
20200;DHT22;36284;37.236;-121.934;2023-10-19T12:18:44;15.20;99.90
20200;DHT22;36284;37.236;-121.934;2023-10-19T12:21:12;15.20;99.90
20200;DHT22;36284;37.236;-121.934;2023-10-19T12:23:40;15.40;99.90
20200;DHT22;36284;37.236;-121.934;2023-10-19T12:26:08;15.40;99.90
20200;DHT22;36284;37.236;-121.934;2023-10-19T12:28:38;15.60;99.90
20200;DHT22;36284;37.236;-121.934;2023-10-19T12:31:05;15.50;99.90
20200;DHT22;36284;37.236;-121.934;2023-10-19T12:33:35;15.40;99.90
20200;DHT22;36284;37.236;-121.934;2023-10-19T12:36:03;15.20;99.90
20200;DHT22;36284;37.236;-121.934;2023-10-19T12:38:49;15.10;99.90
20200;DHT22;36284;37.236;-121.934;2023-10-19T12:41:16;15.10;99.90
20200;DHT22;36284;37.236;-121.934;2023-10-19T12:43:44;15.00;99.90
20200;DHT22;36284;37.236;-121.934;2023-10-19T12:46:13;15.00;99.90
20200;DHT22;36284;37.236;-121.934;2023-10-19T12:48:40;15.10;99.90
20200;DHT22;36284;37.236;-121.934;2023-10-19T12:51:07;15.10;99.90
20200;DHT22;36284;37.236;-121.934;2023-10-19T12:53:38;15.00;99.90
20200;DHT22;36284;37.236;-121.934;2023-10-19T12:56:08;14.90;99.90
20200;DHT22;36284;37.236;-121.934;2023-10-19T12:58:38;14.90;99.90
20200;DHT22;36284;37.236;-121.934;2023-10-19T13:01:05;14.80;99.90
20200;DHT22;36284;37.236;-121.934;2023-10-19T13:03:32;14.70;99.90
20200;DHT22;36284;37.236;-121.934;2023-10-19T13:05:59;14.70;99.90
20200;DHT22;36284;37.236;-121.934;2023-10-19T13:08:30;14.70;99.90
20200;DHT22;36284;37.236;-121.934;2023-10-19T13:10:57;14.60;99.90
20200;DHT22;36284;37.236;-121.934;2023-10-19T13:13:24;14.50;99.90
20200;DHT22;36284;37.236;-121.934;2023-10-19T13:15:51;14.50;99.90
20200;DHT22;36284;37.236;-121.934;2023-10-19T13:18:19;14.50;99.90
20200;DHT22;36284;37.236;-121.934;2023-10-19T13:20:48;14.50;99.90
20200;DHT22;36284;37.236;-121.934;2023-10-19T13:23:15;14.50;99.90
20200;DHT22;36284;37.236;-121.934;2023-10-19T13:26:00;14.40;99.90
20200;DHT22;36284;37.236;-121.934;2023-10-19T13:28:34;14.40;99.90
20200;DHT22;36284;37.236;-121.934;2023-10-19T13:31:05;14.30;99.90
20200;DHT22;36284;37.236;-121.934;2023-10-19T13:33:35;14.30;99.90
20200;DHT22;36284;37.236;-121.934;2023-10-19T13:36:02;14.30;99.90
20200;DHT22;36284;37.236;-121.934;2023-10-19T13:38:32;14.30;99.90
20200;DHT22;36284;37.236;-121.934;2023-10-19T13:41:02;14.30;99.90
20200;DHT22;36284;37.236;-121.934;2023-10-19T13:43:29;14.30;99.90
20200;DHT22;36284;37.236;-121.934;2023-10-19T13:45:56;14.30;99.90
20200;DHT22;36284;37.236;-121.934;2023-10-19T13:48:23;14.40;99.90
20200;DHT22;36284;37.236;-121.934;2023-10-19T13:50:50;14.30;99.90
20200;DHT22;36284;37.236;-121.934;2023-10-19T13:53:19;14.30;99.90
20200;DHT22;36284;37.236;-121.934;2023-10-19T13:55:47;14.30;99.90
20200;DHT22;36284;37.236;-121.934;2023-10-19T13:58:14;14.30;99.90
20200;DHT22;36284;37.236;-121.934;2023-10-19T14:00:42;14.30;99.90
20200;DHT22;36284;37.236;-121.934;2023-10-19T14:03:11;14.20;99.90
20200;DHT22;36284;37.236;-121.934;2023-10-19T14:05:43;14.20;99.90
20200;DHT22;36284;37.236;-121.934;2023-10-19T14:08:14;14.20;99.90
20200;DHT22;36284;37.236;-121.934;2023-10-19T14:10:42;14.10;99.90
20200;DHT22;36284;37.236;-121.934;2023-10-19T14:13:10;14.10;99.90
20200;DHT22;36284;37.236;-121.934;2023-10-19T14:15:41;14.10;99.90
20200;DHT22;36284;37.236;-121.934;2023-10-19T14:18:09;14.10;99.90
20200;DHT22;36284;37.236;-121.934;2023-10-19T14:20:37;14.20;99.90
20200;DHT22;36284;37.236;-121.934;2023-10-19T14:23:06;14.20;99.90
20200;DHT22;36284;37.236;-121.934;2023-10-19T14:25:37;14.20;99.90
20200;DHT22;36284;37.236;-121.934;2023-10-19T14:28:06;14.20;99.90
20200;DHT22;36284;37.236;-121.934;2023-10-19T14:30:36;14.20;99.90
20200;DHT22;36284;37.236;-121.934;2023-10-19T14:33:03;14.20;99.90
20200;DHT22;36284;37.236;-121.934;2023-10-19T14:35:36;14.20;99.90
20200;DHT22;36284;37.236;-121.934;2023-10-19T14:38:05;14.20;99.90
20200;DHT22;36284;37.236;-121.934;2023-10-19T14:40:35;14.30;99.90
20200;DHT22;36284;37.236;-121.934;2023-10-19T14:43:02;14.40;99.90
20200;DHT22;36284;37.236;-121.934;2023-10-19T14:45:30;14.60;99.90
20200;DHT22;36284;37.236;-121.934;2023-10-19T14:47:58;14.70;99.90
20200;DHT22;36284;37.236;-121.934;2023-10-19T14:50:26;14.90;99.90
20200;DHT22;36284;37.236;-121.934;2023-10-19T14:52:53;15.10;99.90
20200;DHT22;36284;37.236;-121.934;2023-10-19T14:55:23;15.20;99.90
20200;DHT22;36284;37.236;-121.934;2023-10-19T14:57:55;15.30;99.90
20200;DHT22;36284;37.236;-121.934;2023-10-19T15:00:24;15.50;99.90
20200;DHT22;36284;37.236;-121.934;2023-10-19T15:03:11;15.50;99.90
20200;DHT22;36284;37.236;-121.934;2023-10-19T15:05:38;15.70;99.90
20200;DHT22;36284;37.236;-121.934;2023-10-19T15:08:07;15.70;99.90
20200;DHT22;36284;37.236;-121.934;2023-10-19T15:10:40;15.70;99.90
20200;DHT22;36284;37.236;-121.934;2023-10-19T15:13:07;15.80;99.90
20200;DHT22;36284;37.236;-121.934;2023-10-19T15:15:34;15.90;99.90
20200;DHT22;36284;37.236;-121.934;2023-10-19T15:18:02;15.90;99.90
20200;DHT22;36284;37.236;-121.934;2023-10-19T15:20:30;16.10;99.90
20200;DHT22;36284;37.236;-121.934;2023-10-19T15:22:58;16.20;99.90
20200;DHT22;36284;37.236;-121.934;2023-10-19T15:25:25;16.40;99.90
20200;DHT22;36284;37.236;-121.934;2023-10-19T15:27:53;16.50;99.90